sensor_id;sensor_type;location;lat;lon;timestamp;P1;durP1;ratioP1;P2;durP2;ratioP2
59016;SDS011;44800;55.600;38.134;2023-06-14T00:01:21;16.83;;;6.80;;
59016;SDS011;44800;55.600;38.134;2023-06-14T00:03:51;11.32;;;5.78;;
59016;SDS011;44800;55.600;38.134;2023-06-14T00:06:20;14.85;;;6.80;;
59016;SDS011;44800;55.600;38.134;2023-06-14T00:08:51;12.65;;;6.57;;
59016;SDS011;44800;55.600;38.134;2023-06-14T00:11:20;11.80;;;6.18;;
59016;SDS011;44800;55.600;38.134;2023-06-14T00:13:49;13.65;;;7.22;;
59016;SDS011;44800;55.600;38.134;2023-06-14T00:16:18;14.30;;;6.80;;
59016;SDS011;44800;55.600;38.134;2023-06-14T00:18:47;15.50;;;6.95;;
59016;SDS011;44800;55.600;38.134;2023-06-14T00:21:20;16.45;;;6.95;;
59016;SDS011;44800;55.600;38.134;2023-06-14T00:23:48;11.38;;;7.05;;
59016;SDS011;44800;55.600;38.134;2023-06-14T00:26:17;12.55;;;6.18;;
59016;SDS011;44800;55.600;38.134;2023-06-14T00:28:46;14.80;;;6.20;;
59016;SDS011;44800;55.600;38.134;2023-06-14T00:31:14;14.90;;;7.35;;
59016;SDS011;44800;55.600;38.134;2023-06-14T00:33:43;10.65;;;6.50;;
59016;SDS011;44800;55.600;38.134;2023-06-14T00:36:12;14.90;;;6.90;;
59016;SDS011;44800;55.600;38.134;2023-06-14T00:38:42;14.18;;;7.43;;
59016;SDS011;44800;55.600;38.134;2023-06-14T00:41:10;12.52;;;7.32;;
59016;SDS011;44800;55.600;38.134;2023-06-14T00:43:39;10.27;;;6.13;;
59016;SDS011;44800;55.600;38.134;2023-06-14T00:46:07;11.95;;;6.18;;
59016;SDS011;44800;55.600;38.134;2023-06-14T00:48:36;12.18;;;6.80;;
59016;SDS011;44800;55.600;38.134;2023-06-14T00:51:05;14.93;;;7.72;;
59016;SDS011;44800;55.600;38.134;2023-06-14T00:53:33;15.25;;;6.68;;
59016;SDS011;44800;55.600;38.134;2023-06-14T00:56:04;14.93;;;7.13;;
59016;SDS011;44800;55.600;38.134;2023-06-14T00:58:33;16.38;;;7.40;;
59016;SDS011;44800;55.600;38.134;2023-06-14T01:01:01;14.77;;;6.57;;
59016;SDS011;44800;55.600;38.134;2023-06-14T01:03:30;13.30;;;6.70;;
59016;SDS011;44800;55.600;38.134;2023-06-14T01:06:03;14.02;;;6.68;;
59016;SDS011;44800;55.600;38.134;2023-06-14T01:08:39;15.40;;;7.60;;
59016;SDS011;44800;55.600;38.134;2023-06-14T01:11:16;15.02;;;6.60;;
59016;SDS011;44800;55.600;38.134;2023-06-14T01:13:47;13.88;;;7.38;;
59016;SDS011;44800;55.600;38.134;2023-06-14T01:16:17;12.18;;;6.68;;
59016;SDS011;44800;55.600;38.134;2023-06-14T01:18:46;13.50;;;6.35;;
59016;SDS011;44800;55.600;38.134;2023-06-14T01:21:22;15.18;;;6.78;;
59016;SDS011;44800;55.600;38.134;2023-06-14T01:23:53;14.15;;;7.00;;
59016;SDS011;44800;55.600;38.134;2023-06-14T01:26:22;15.07;;;7.68;;
59016;SDS011;44800;55.600;38.134;2023-06-14T01:28:51;15.98;;;7.15;;
59016;SDS011;44800;55.600;38.134;2023-06-14T01:31:25;15.35;;;6.40;;
59016;SDS011;44800;55.600;38.134;2023-06-14T01:33:54;15.95;;;7.43;;
59016;SDS011;44800;55.600;38.134;2023-06-14T01:36:23;15.00;;;7.57;;
59016;SDS011;44800;55.600;38.134;2023-06-14T01:38:57;14.47;;;6.53;;
59016;SDS011;44800;55.600;38.134;2023-06-14T01:41:27;11.73;;;7.03;;
59016;SDS011;44800;55.600;38.134;2023-06-14T01:43:57;11.80;;;6.78;;
59016;SDS011;44800;55.600;38.134;2023-06-14T01:46:26;13.88;;;7.75;;
59016;SDS011;44800;55.600;38.134;2023-06-14T01:48:54;13.43;;;6.97;;
59016;SDS011;44800;55.600;38.134;2023-06-14T01:51:23;16.80;;;8.40;;
59016;SDS011;44800;55.600;38.134;2023-06-14T01:53:52;13.73;;;8.02;;
59016;SDS011;44800;55.600;38.134;2023-06-14T01:56:23;15.05;;;6.75;;
59016;SDS011;44800;55.600;38.134;2023-06-14T01:58:53;14.60;;;7.90;;
59016;SDS011;44800;55.600;38.134;2023-06-14T02:01:22;13.45;;;7.97;;
59016;SDS011;44800;55.600;38.134;2023-06-14T02:03:51;15.55;;;7.88;;
59016;SDS011;44800;55.600;38.134;2023-06-14T02:06:20;19.15;;;8.82;;
59016;SDS011;44800;55.600;38.134;2023-06-14T02:08:49;15.35;;;9.05;;
59016;SDS011;44800;55.600;38.134;2023-06-14T02:11:17;12.73;;;7.60;;
59016;SDS011;44800;55.600;38.134;2023-06-14T02:13:48;17.02;;;7.95;;
59016;SDS011;44800;55.600;38.134;2023-06-14T02:16:17;29.60;;;8.77;;
59016;SDS011;44800;55.600;38.134;2023-06-14T02:18:46;16.83;;;8.07;;
59016;SDS011;44800;55.600;38.134;2023-06-14T02:21:15;16.48;;;7.85;;
59016;SDS011;44800;55.600;38.134;2023-06-14T02:23:44;13.55;;;8.40;;
59016;SDS011;44800;55.600;38.134;2023-06-14T02:26:13;12.52;;;7.32;;
59016;SDS011;44800;55.600;38.134;2023-06-14T02:28:41;14.90;;;8.00;;
59016;SDS011;44800;55.600;38.134;2023-06-14T02:31:11;21.88;;;9.55;;
59016;SDS011;44800;55.600;38.134;2023-06-14T02:33:40;22.70;;;9.90;;
59016;SDS011;44800;55.600;38.134;2023-06-14T02:36:09;16.35;;;9.23;;
59016;SDS011;44800;55.600;38.134;2023-06-14T02:38:38;13.70;;;8.25;;
59016;SDS011;44800;55.600;38.134;2023-06-14T02:41:08;13.95;;;8.30;;
59016;SDS011;44800;55.600;38.134;2023-06-14T02:43:37;20.83;;;8.00;;
59016;SDS011;44800;55.600;38.134;2023-06-14T02:46:06;20.63;;;9.25;;
59016;SDS011;44800;55.600;38.134;2023-06-14T02:48:36;16.73;;;8.48;;
59016;SDS011;44800;55.600;38.134;2023-06-14T02:51:05;20.13;;;8.57;;
59016;SDS011;44800;55.600;38.134;2023-06-14T02:53:35;17.08;;;7.22;;
59016;SDS011;44800;55.600;38.134;2023-06-14T02:56:04;28.17;;;8.45;;
59016;SDS011;44800;55.600;38.134;2023-06-14T02:58:32;12.35;;;6.28;;
59016;SDS011;44800;55.600;38.134;2023-06-14T03:01:01;14.48;;;7.40;;
59016;SDS011;44800;55.600;38.134;2023-06-14T03:03:30;13.30;;;6.65;;
59016;SDS011;44800;55.600;38.134;2023-06-14T03:06:00;52.35;;;10.30;;
59016;SDS011;44800;55.600;38.134;2023-06-14T03:08:31;25.50;;;6.67;;
59016;SDS011;44800;55.600;38.134;2023-06-14T03:11:05;16.95;;;7.22;;
59016;SDS011;44800;55.600;38.134;2023-06-14T03:13:34;9.07;;;5.90;;
59016;SDS011;44800;55.600;38.134;2023-06-14T03:16:04;18.88;;;6.40;;
59016;SDS011;44800;55.600;38.134;2023-06-14T03:18:34;24.50;;;7.07;;
59016;SDS011;44800;55.600;38.134;2023-06-14T03:21:04;23.02;;;8.20;;
59016;SDS011;44800;55.600;38.134;2023-06-14T03:23:33;13.82;;;6.63;;
59016;SDS011;44800;55.600;38.134;2023-06-14T03:26:02;19.52;;;6.90;;
59016;SDS011;44800;55.600;38.134;2023-06-14T03:28:30;17.52;;;6.45;;
59016;SDS011;44800;55.600;38.134;2023-06-14T03:30:59;8.00;;;5.10;;
59016;SDS011;44800;55.600;38.134;2023-06-14T03:33:28;10.98;;;6.07;;
59016;SDS011;44800;55.600;38.134;2023-06-14T03:35:56;15.48;;;6.57;;
59016;SDS011;44800;55.600;38.134;2023-06-14T03:38:26;14.45;;;6.20;;
59016;SDS011;44800;55.600;38.134;2023-06-14T03:40:55;16.05;;;6.95;;
59016;SDS011;44800;55.600;38.134;2023-06-14T03:43:23;81.72;;;11.80;;
59016;SDS011;44800;55.600;38.134;2023-06-14T03:45:52;15.95;;;7.25;;
59016;SDS011;44800;55.600;38.134;2023-06-14T03:48:20;17.58;;;6.60;;
59016;SDS011;44800;55.600;38.134;2023-06-14T03:50:49;21.08;;;6.75;;
59016;SDS011;44800;55.600;38.134;2023-06-14T03:53:18;17.13;;;7.60;;
59016;SDS011;44800;55.600;38.134;2023-06-14T03:55:48;12.35;;;6.78;;
59016;SDS011;44800;55.600;38.134;2023-06-14T03:58:22;13.07;;;6.47;;
59016;SDS011;44800;55.600;38.134;2023-06-14T04:00:51;18.17;;;7.93;;
59016;SDS011;44800;55.600;38.134;2023-06-14T04:03:19;12.77;;;6.93;;
59016;SDS011;44800;55.600;38.134;2023-06-14T04:05:56;13.57;;;7.15;;
59016;SDS011;44800;55.600;38.134;2023-06-14T04:08:27;12.80;;;7.47;;
59016;SDS011;44800;55.600;38.134;2023-06-14T04:10:57;19.83;;;7.78;;
59016;SDS011;44800;55.600;38.134;2023-06-14T04:13:25;13.32;;;7.57;;
59016;SDS011;44800;55.600;38.134;2023-06-14T04:15:54;17.40;;;7.78;;
59016;SDS011;44800;55.600;38.134;2023-06-14T04:18:24;13.13;;;7.15;;
59016;SDS011;44800;55.600;38.134;2023-06-14T04:20:52;11.23;;;7.00;;
59016;SDS011;44800;55.600;38.134;2023-06-14T04:23:20;21.02;;;7.28;;
59016;SDS011;44800;55.600;38.134;2023-06-14T04:25:50;13.95;;;7.10;;
59016;SDS011;44800;55.600;38.134;2023-06-14T04:28:20;17.63;;;7.03;;
59016;SDS011;44800;55.600;38.134;2023-06-14T04:30:53;21.75;;;7.22;;
59016;SDS011;44800;55.600;38.134;2023-06-14T04:33:22;13.02;;;6.50;;
59016;SDS011;44800;55.600;38.134;2023-06-14T04:35:52;20.98;;;7.45;;
59016;SDS011;44800;55.600;38.134;2023-06-14T04:38:23;18.05;;;6.50;;
59016;SDS011;44800;55.600;38.134;2023-06-14T04:40:53;15.65;;;9.15;;
59016;SDS011;44800;55.600;38.134;2023-06-14T04:43:25;13.88;;;6.75;;
59016;SDS011;44800;55.600;38.134;2023-06-14T04:45:54;18.13;;;9.23;;
59016;SDS011;44800;55.600;38.134;2023-06-14T04:48:24;16.65;;;8.40;;
59016;SDS011;44800;55.600;38.134;2023-06-14T04:50:52;20.95;;;7.55;;
59016;SDS011;44800;55.600;38.134;2023-06-14T04:53:20;18.45;;;7.70;;
59016;SDS011;44800;55.600;38.134;2023-06-14T04:55:50;18.33;;;7.90;;
59016;SDS011;44800;55.600;38.134;2023-06-14T04:58:19;18.75;;;7.05;;
59016;SDS011;44800;55.600;38.134;2023-06-14T05:00:49;19.25;;;7.95;;
59016;SDS011;44800;55.600;38.134;2023-06-14T05:03:17;13.38;;;7.15;;
59016;SDS011;44800;55.600;38.134;2023-06-14T05:05:47;15.10;;;8.15;;
59016;SDS011;44800;55.600;38.134;2023-06-14T05:08:17;16.00;;;7.00;;
59016;SDS011;44800;55.600;38.134;2023-06-14T05:10:45;17.27;;;7.63;;
59016;SDS011;44800;55.600;38.134;2023-06-14T05:13:14;19.23;;;7.75;;
59016;SDS011;44800;55.600;38.134;2023-06-14T05:15:43;19.55;;;7.45;;
59016;SDS011;44800;55.600;38.134;2023-06-14T05:18:13;15.40;;;7.45;;
59016;SDS011;44800;55.600;38.134;2023-06-14T05:20:42;15.52;;;7.60;;
59016;SDS011;44800;55.600;38.134;2023-06-14T05:23:11;19.15;;;6.78;;
59016;SDS011;44800;55.600;38.134;2023-06-14T05:25:42;15.10;;;6.18;;
59016;SDS011;44800;55.600;38.134;2023-06-14T05:28:12;15.85;;;6.82;;
59016;SDS011;44800;55.600;38.134;2023-06-14T05:30:40;13.82;;;5.95;;
59016;SDS011;44800;55.600;38.134;2023-06-14T05:33:09;12.13;;;5.38;;
59016;SDS011;44800;55.600;38.134;2023-06-14T05:35:39;10.50;;;5.07;;
59016;SDS011;44800;55.600;38.134;2023-06-14T05:38:07;11.82;;;5.75;;
59016;SDS011;44800;55.600;38.134;2023-06-14T05:40:36;12.30;;;4.57;;
59016;SDS011;44800;55.600;38.134;2023-06-14T05:43:04;6.25;;;4.05;;
59016;SDS011;44800;55.600;38.134;2023-06-14T05:45:33;12.65;;;3.78;;
59016;SDS011;44800;55.600;38.134;2023-06-14T05:48:01;10.82;;;3.75;;
59016;SDS011;44800;55.600;38.134;2023-06-14T05:50:30;9.77;;;4.05;;
59016;SDS011;44800;55.600;38.134;2023-06-14T05:53:00;9.32;;;3.90;;
59016;SDS011;44800;55.600;38.134;2023-06-14T05:55:28;7.88;;;4.28;;
59016;SDS011;44800;55.600;38.134;2023-06-14T05:57:57;6.75;;;4.80;;
59016;SDS011;44800;55.600;38.134;2023-06-14T06:00:26;9.48;;;3.72;;
59016;SDS011;44800;55.600;38.134;2023-06-14T06:02:54;14.00;;;4.63;;
59016;SDS011;44800;55.600;38.134;2023-06-14T06:05:24;8.70;;;4.10;;
59016;SDS011;44800;55.600;38.134;2023-06-14T06:07:53;9.68;;;3.78;;
59016;SDS011;44800;55.600;38.134;2023-06-14T06:10:24;6.40;;;3.22;;
59016;SDS011;44800;55.600;38.134;2023-06-14T06:12:52;10.88;;;4.82;;
59016;SDS011;44800;55.600;38.134;2023-06-14T06:15:21;6.65;;;2.85;;
59016;SDS011;44800;55.600;38.134;2023-06-14T06:17:49;6.38;;;2.80;;
59016;SDS011;44800;55.600;38.134;2023-06-14T06:20:22;10.27;;;3.50;;
59016;SDS011;44800;55.600;38.134;2023-06-14T06:22:56;5.35;;;2.85;;
59016;SDS011;44800;55.600;38.134;2023-06-14T06:25:26;10.68;;;4.07;;
59016;SDS011;44800;55.600;38.134;2023-06-14T06:27:55;5.30;;;2.45;;
59016;SDS011;44800;55.600;38.134;2023-06-14T06:30:24;6.32;;;2.97;;
59016;SDS011;44800;55.600;38.134;2023-06-14T06:32:53;8.23;;;3.53;;
59016;SDS011;44800;55.600;38.134;2023-06-14T06:35:23;5.22;;;3.05;;
59016;SDS011;44800;55.600;38.134;2023-06-14T06:37:51;7.60;;;2.88;;
59016;SDS011;44800;55.600;38.134;2023-06-14T06:40:20;6.20;;;3.05;;
59016;SDS011;44800;55.600;38.134;2023-06-14T06:42:50;4.78;;;2.80;;
59016;SDS011;44800;55.600;38.134;2023-06-14T06:45:20;6.95;;;3.15;;
59016;SDS011;44800;55.600;38.134;2023-06-14T06:47:51;4.70;;;2.72;;
59016;SDS011;44800;55.600;38.134;2023-06-14T06:50:20;7.05;;;3.53;;
59016;SDS011;44800;55.600;38.134;2023-06-14T06:52:49;12.10;;;5.25;;
59016;SDS011;44800;55.600;38.134;2023-06-14T06:55:18;8.10;;;3.58;;
59016;SDS011;44800;55.600;38.134;2023-06-14T06:57:47;5.43;;;3.17;;
59016;SDS011;44800;55.600;38.134;2023-06-14T07:00:18;7.93;;;3.55;;
59016;SDS011;44800;55.600;38.134;2023-06-14T07:02:47;6.32;;;3.25;;
59016;SDS011;44800;55.600;38.134;2023-06-14T07:05:15;5.47;;;2.53;;
59016;SDS011;44800;55.600;38.134;2023-06-14T07:07:45;5.65;;;2.72;;
59016;SDS011;44800;55.600;38.134;2023-06-14T07:10:13;6.30;;;3.10;;
59016;SDS011;44800;55.600;38.134;2023-06-14T07:12:42;4.65;;;3.15;;
59016;SDS011;44800;55.600;38.134;2023-06-14T07:15:11;7.03;;;3.55;;
59016;SDS011;44800;55.600;38.134;2023-06-14T07:17:41;5.80;;;3.38;;
59016;SDS011;44800;55.600;38.134;2023-06-14T07:20:10;6.70;;;3.53;;
59016;SDS011;44800;55.600;38.134;2023-06-14T07:22:40;5.82;;;3.38;;
59016;SDS011;44800;55.600;38.134;2023-06-14T07:25:10;4.13;;;3.00;;
59016;SDS011;44800;55.600;38.134;2023-06-14T07:27:42;5.13;;;3.50;;
59016;SDS011;44800;55.600;38.134;2023-06-14T07:30:11;7.00;;;3.03;;
59016;SDS011;44800;55.600;38.134;2023-06-14T07:32:42;7.72;;;3.70;;
59016;SDS011;44800;55.600;38.134;2023-06-14T07:35:10;9.45;;;3.80;;
59016;SDS011;44800;55.600;38.134;2023-06-14T07:37:40;5.78;;;3.20;;
59016;SDS011;44800;55.600;38.134;2023-06-14T07:40:09;7.35;;;3.42;;
59016;SDS011;44800;55.600;38.134;2023-06-14T07:42:38;6.75;;;4.07;;
59016;SDS011;44800;55.600;38.134;2023-06-14T07:45:07;6.53;;;3.90;;
59016;SDS011;44800;55.600;38.134;2023-06-14T07:47:36;6.25;;;4.07;;
59016;SDS011;44800;55.600;38.134;2023-06-14T07:50:06;6.63;;;3.80;;
59016;SDS011;44800;55.600;38.134;2023-06-14T07:52:35;9.77;;;3.85;;
59016;SDS011;44800;55.600;38.134;2023-06-14T07:55:04;5.78;;;4.38;;
59016;SDS011;44800;55.600;38.134;2023-06-14T07:57:33;7.05;;;3.22;;
59016;SDS011;44800;55.600;38.134;2023-06-14T08:00:02;6.30;;;3.90;;
59016;SDS011;44800;55.600;38.134;2023-06-14T08:02:33;4.15;;;3.22;;
59016;SDS011;44800;55.600;38.134;2023-06-14T08:05:01;4.63;;;3.15;;
59016;SDS011;44800;55.600;38.134;2023-06-14T08:07:31;6.05;;;3.92;;
59016;SDS011;44800;55.600;38.134;2023-06-14T08:10:00;5.18;;;3.03;;
59016;SDS011;44800;55.600;38.134;2023-06-14T08:12:29;5.78;;;3.90;;
59016;SDS011;44800;55.600;38.134;2023-06-14T08:14:58;6.38;;;3.72;;
59016;SDS011;44800;55.600;38.134;2023-06-14T08:17:40;9.35;;;4.25;;
59016;SDS011;44800;55.600;38.134;2023-06-14T08:20:09;6.32;;;3.65;;
59016;SDS011;44800;55.600;38.134;2023-06-14T08:22:39;6.50;;;3.70;;
59016;SDS011;44800;55.600;38.134;2023-06-14T08:25:09;11.85;;;3.65;;
59016;SDS011;44800;55.600;38.134;2023-06-14T08:27:39;8.50;;;3.65;;
59016;SDS011;44800;55.600;38.134;2023-06-14T08:30:08;9.02;;;3.75;;
59016;SDS011;44800;55.600;38.134;2023-06-14T08:32:38;8.90;;;4.05;;
59016;SDS011;44800;55.600;38.134;2023-06-14T08:35:08;6.50;;;3.30;;
59016;SDS011;44800;55.600;38.134;2023-06-14T08:37:40;6.68;;;3.55;;
59016;SDS011;44800;55.600;38.134;2023-06-14T08:40:15;7.05;;;3.50;;
59016;SDS011;44800;55.600;38.134;2023-06-14T08:42:50;6.68;;;4.38;;
59016;SDS011;44800;55.600;38.134;2023-06-14T08:45:19;4.95;;;3.70;;
59016;SDS011;44800;55.600;38.134;2023-06-14T08:47:53;7.90;;;3.45;;
59016;SDS011;44800;55.600;38.134;2023-06-14T08:50:26;10.55;;;3.67;;
59016;SDS011;44800;55.600;38.134;2023-06-14T08:53:01;6.38;;;3.88;;
59016;SDS011;44800;55.600;38.134;2023-06-14T08:55:31;5.68;;;3.38;;
59016;SDS011;44800;55.600;38.134;2023-06-14T08:58:04;8.55;;;4.07;;
59016;SDS011;44800;55.600;38.134;2023-06-14T09:00:32;14.38;;;4.93;;
59016;SDS011;44800;55.600;38.134;2023-06-14T09:03:01;8.55;;;4.10;;
59016;SDS011;44800;55.600;38.134;2023-06-14T09:05:30;8.63;;;3.60;;
59016;SDS011;44800;55.600;38.134;2023-06-14T09:07:59;6.00;;;3.47;;
59016;SDS011;44800;55.600;38.134;2023-06-14T09:10:32;9.13;;;4.68;;
59016;SDS011;44800;55.600;38.134;2023-06-14T09:13:05;7.60;;;4.30;;
59016;SDS011;44800;55.600;38.134;2023-06-14T09:15:34;8.32;;;5.00;;
59016;SDS011;44800;55.600;38.134;2023-06-14T09:18:03;6.95;;;4.78;;
59016;SDS011;44800;55.600;38.134;2023-06-14T09:20:32;6.82;;;4.28;;
59016;SDS011;44800;55.600;38.134;2023-06-14T09:23:02;8.38;;;3.70;;
59016;SDS011;44800;55.600;38.134;2023-06-14T09:25:41;10.98;;;3.83;;
59016;SDS011;44800;55.600;38.134;2023-06-14T09:28:11;7.60;;;4.13;;
59016;SDS011;44800;55.600;38.134;2023-06-14T09:30:39;9.00;;;4.63;;
59016;SDS011;44800;55.600;38.134;2023-06-14T09:33:08;7.93;;;3.85;;
59016;SDS011;44800;55.600;38.134;2023-06-14T09:35:37;9.75;;;4.80;;
59016;SDS011;44800;55.600;38.134;2023-06-14T09:38:07;12.38;;;5.03;;
59016;SDS011;44800;55.600;38.134;2023-06-14T09:40:36;10.95;;;4.60;;
59016;SDS011;44800;55.600;38.134;2023-06-14T09:43:05;7.63;;;4.05;;
59016;SDS011;44800;55.600;38.134;2023-06-14T09:45:38;6.07;;;4.07;;
59016;SDS011;44800;55.600;38.134;2023-06-14T09:48:07;10.65;;;5.25;;
59016;SDS011;44800;55.600;38.134;2023-06-14T09:50:37;10.77;;;5.60;;
59016;SDS011;44800;55.600;38.134;2023-06-14T09:53:06;7.90;;;4.70;;
59016;SDS011;44800;55.600;38.134;2023-06-14T09:55:37;9.63;;;4.53;;
59016;SDS011;44800;55.600;38.134;2023-06-14T09:58:10;16.88;;;4.88;;
59016;SDS011;44800;55.600;38.134;2023-06-14T10:00:39;10.57;;;4.93;;
59016;SDS011;44800;55.600;38.134;2023-06-14T10:03:11;7.25;;;4.57;;
59016;SDS011;44800;55.600;38.134;2023-06-14T10:08:13;6.35;;;4.15;;
59016;SDS011;44800;55.600;38.134;2023-06-14T10:10:43;7.65;;;3.83;;
59016;SDS011;44800;55.600;38.134;2023-06-14T10:13:12;7.07;;;4.40;;
59016;SDS011;44800;55.600;38.134;2023-06-14T10:15:42;10.52;;;5.43;;
59016;SDS011;44800;55.600;38.134;2023-06-14T10:18:15;7.47;;;4.32;;
59016;SDS011;44800;55.600;38.134;2023-06-14T10:20:53;9.98;;;5.72;;
59016;SDS011;44800;55.600;38.134;2023-06-14T10:23:33;8.15;;;4.63;;
59016;SDS011;44800;55.600;38.134;2023-06-14T10:26:05;6.07;;;4.10;;
59016;SDS011;44800;55.600;38.134;2023-06-14T10:28:36;7.18;;;4.13;;
59016;SDS011;44800;55.600;38.134;2023-06-14T10:31:05;11.65;;;5.47;;
59016;SDS011;44800;55.600;38.134;2023-06-14T10:33:36;6.65;;;3.95;;
59016;SDS011;44800;55.600;38.134;2023-06-14T10:36:10;6.28;;;4.07;;
59016;SDS011;44800;55.600;38.134;2023-06-14T10:38:59;5.22;;;3.97;;
59016;SDS011;44800;55.600;38.134;2023-06-14T10:41:30;8.65;;;3.97;;
59016;SDS011;44800;55.600;38.134;2023-06-14T10:47:06;6.68;;;4.13;;
59016;SDS011;44800;55.600;38.134;2023-06-14T10:49:41;8.77;;;4.60;;
59016;SDS011;44800;55.600;38.134;2023-06-14T10:52:12;7.57;;;4.10;;
59016;SDS011;44800;55.600;38.134;2023-06-14T10:57:43;6.05;;;4.63;;
59016;SDS011;44800;55.600;38.134;2023-06-14T11:00:19;8.48;;;4.65;;
59016;SDS011;44800;55.600;38.134;2023-06-14T11:06:02;12.00;;;3.75;;
59016;SDS011;44800;55.600;38.134;2023-06-14T11:08:58;6.45;;;3.30;;
59016;SDS011;44800;55.600;38.134;2023-06-14T11:11:42;8.48;;;4.55;;
59016;SDS011;44800;55.600;38.134;2023-06-14T11:14:11;9.43;;;4.10;;
59016;SDS011;44800;55.600;38.134;2023-06-14T11:16:39;9.50;;;4.15;;
59016;SDS011;44800;55.600;38.134;2023-06-14T11:19:08;8.45;;;5.25;;
59016;SDS011;44800;55.600;38.134;2023-06-14T11:21:39;8.20;;;4.03;;
59016;SDS011;44800;55.600;38.134;2023-06-14T11:24:09;10.90;;;4.25;;
59016;SDS011;44800;55.600;38.134;2023-06-14T11:26:39;6.43;;;4.22;;
59016;SDS011;44800;55.600;38.134;2023-06-14T11:29:09;10.27;;;4.97;;
59016;SDS011;44800;55.600;38.134;2023-06-14T11:31:38;7.25;;;4.03;;
59016;SDS011;44800;55.600;38.134;2023-06-14T11:34:11;6.25;;;3.65;;
59016;SDS011;44800;55.600;38.134;2023-06-14T11:36:41;9.18;;;4.25;;
59016;SDS011;44800;55.600;38.134;2023-06-14T11:39:10;7.35;;;4.20;;
59016;SDS011;44800;55.600;38.134;2023-06-14T11:41:39;7.47;;;4.57;;
59016;SDS011;44800;55.600;38.134;2023-06-14T11:44:10;10.52;;;4.28;;
59016;SDS011;44800;55.600;38.134;2023-06-14T11:46:39;10.95;;;5.22;;
59016;SDS011;44800;55.600;38.134;2023-06-14T11:49:08;11.18;;;4.30;;
59016;SDS011;44800;55.600;38.134;2023-06-14T11:51:37;9.70;;;4.47;;
59016;SDS011;44800;55.600;38.134;2023-06-14T11:54:06;6.78;;;3.90;;
59016;SDS011;44800;55.600;38.134;2023-06-14T11:56:36;9.23;;;3.80;;
59016;SDS011;44800;55.600;38.134;2023-06-14T11:59:04;8.57;;;4.35;;
59016;SDS011;44800;55.600;38.134;2023-06-14T12:01:37;6.20;;;3.80;;
59016;SDS011;44800;55.600;38.134;2023-06-14T12:04:06;8.38;;;4.75;;
59016;SDS011;44800;55.600;38.134;2023-06-14T12:06:35;7.05;;;4.22;;
59016;SDS011;44800;55.600;38.134;2023-06-14T12:09:10;6.28;;;4.15;;
59016;SDS011;44800;55.600;38.134;2023-06-14T12:11:43;7.20;;;3.95;;
59016;SDS011;44800;55.600;38.134;2023-06-14T12:14:12;13.73;;;7.55;;
59016;SDS011;44800;55.600;38.134;2023-06-14T12:16:42;8.80;;;4.80;;
59016;SDS011;44800;55.600;38.134;2023-06-14T12:19:12;8.40;;;3.90;;
59016;SDS011;44800;55.600;38.134;2023-06-14T12:21:41;7.78;;;4.38;;
59016;SDS011;44800;55.600;38.134;2023-06-14T12:24:11;9.32;;;4.38;;
59016;SDS011;44800;55.600;38.134;2023-06-14T12:26:40;7.35;;;3.63;;
59016;SDS011;44800;55.600;38.134;2023-06-14T12:29:09;10.52;;;4.78;;
59016;SDS011;44800;55.600;38.134;2023-06-14T12:31:41;13.82;;;4.25;;
59016;SDS011;44800;55.600;38.134;2023-06-14T12:34:10;11.98;;;4.65;;
59016;SDS011;44800;55.600;38.134;2023-06-14T12:36:38;8.20;;;4.50;;
59016;SDS011;44800;55.600;38.134;2023-06-14T12:39:12;6.05;;;4.40;;
59016;SDS011;44800;55.600;38.134;2023-06-14T12:41:41;6.85;;;3.55;;
59016;SDS011;44800;55.600;38.134;2023-06-14T12:44:10;5.75;;;4.30;;
59016;SDS011;44800;55.600;38.134;2023-06-14T12:46:38;6.32;;;4.50;;
59016;SDS011;44800;55.600;38.134;2023-06-14T12:49:10;6.45;;;3.72;;
59016;SDS011;44800;55.600;38.134;2023-06-14T12:51:39;8.23;;;4.45;;
59016;SDS011;44800;55.600;38.134;2023-06-14T12:54:08;7.22;;;3.95;;
59016;SDS011;44800;55.600;38.134;2023-06-14T12:56:36;5.18;;;3.55;;
59016;SDS011;44800;55.600;38.134;2023-06-14T12:59:05;5.53;;;3.90;;
59016;SDS011;44800;55.600;38.134;2023-06-14T13:01:34;8.02;;;4.25;;
59016;SDS011;44800;55.600;38.134;2023-06-14T13:04:02;9.27;;;4.80;;
59016;SDS011;44800;55.600;38.134;2023-06-14T13:06:33;8.25;;;4.28;;
59016;SDS011;44800;55.600;38.134;2023-06-14T13:09:01;11.65;;;5.00;;
59016;SDS011;44800;55.600;38.134;2023-06-14T13:11:30;7.47;;;3.75;;
59016;SDS011;44800;55.600;38.134;2023-06-14T13:13:59;5.25;;;4.10;;
59016;SDS011;44800;55.600;38.134;2023-06-14T13:16:43;5.60;;;4.05;;
59016;SDS011;44800;55.600;38.134;2023-06-14T13:19:11;6.50;;;3.53;;
59016;SDS011;44800;55.600;38.134;2023-06-14T13:21:41;6.88;;;4.18;;
59016;SDS011;44800;55.600;38.134;2023-06-14T13:24:10;7.80;;;3.65;;
59016;SDS011;44800;55.600;38.134;2023-06-14T13:26:38;6.07;;;3.45;;
59016;SDS011;44800;55.600;38.134;2023-06-14T13:29:06;7.55;;;4.25;;
59016;SDS011;44800;55.600;38.134;2023-06-14T13:31:35;8.32;;;3.72;;
59016;SDS011;44800;55.600;38.134;2023-06-14T13:34:03;5.22;;;3.70;;
59016;SDS011;44800;55.600;38.134;2023-06-14T13:36:32;8.10;;;5.10;;
59016;SDS011;44800;55.600;38.134;2023-06-14T13:39:02;6.25;;;3.85;;
59016;SDS011;44800;55.600;38.134;2023-06-14T13:41:31;5.97;;;3.88;;
59016;SDS011;44800;55.600;38.134;2023-06-14T13:44:01;5.55;;;3.53;;
59016;SDS011;44800;55.600;38.134;2023-06-14T13:46:31;5.47;;;3.95;;
59016;SDS011;44800;55.600;38.134;2023-06-14T13:49:00;8.23;;;3.85;;
59016;SDS011;44800;55.600;38.134;2023-06-14T13:51:28;7.43;;;4.40;;
59016;SDS011;44800;55.600;38.134;2023-06-14T13:53:57;7.22;;;3.95;;
59016;SDS011;44800;55.600;38.134;2023-06-14T13:56:27;8.55;;;4.40;;
59016;SDS011;44800;55.600;38.134;2023-06-14T13:58:56;7.35;;;3.67;;
59016;SDS011;44800;55.600;38.134;2023-06-14T14:01:25;8.65;;;4.90;;
59016;SDS011;44800;55.600;38.134;2023-06-14T14:03:55;9.93;;;3.72;;
59016;SDS011;44800;55.600;38.134;2023-06-14T14:06:25;7.88;;;3.85;;
59016;SDS011;44800;55.600;38.134;2023-06-14T14:08:54;7.60;;;4.38;;
59016;SDS011;44800;55.600;38.134;2023-06-14T14:11:22;8.98;;;4.05;;
59016;SDS011;44800;55.600;38.134;2023-06-14T14:13:52;7.03;;;4.38;;
59016;SDS011;44800;55.600;38.134;2023-06-14T14:16:21;11.25;;;4.85;;
59016;SDS011;44800;55.600;38.134;2023-06-14T14:18:49;5.05;;;4.00;;
59016;SDS011;44800;55.600;38.134;2023-06-14T14:21:18;5.45;;;3.78;;
59016;SDS011;44800;55.600;38.134;2023-06-14T14:23:47;7.65;;;3.60;;
59016;SDS011;44800;55.600;38.134;2023-06-14T14:26:16;6.85;;;5.22;;
59016;SDS011;44800;55.600;38.134;2023-06-14T14:28:44;6.35;;;3.97;;
59016;SDS011;44800;55.600;38.134;2023-06-14T14:31:15;4.70;;;4.13;;
59016;SDS011;44800;55.600;38.134;2023-06-14T14:33:43;7.30;;;4.20;;
59016;SDS011;44800;55.600;38.134;2023-06-14T14:36:12;4.50;;;3.22;;
59016;SDS011;44800;55.600;38.134;2023-06-14T14:38:40;7.25;;;4.00;;
59016;SDS011;44800;55.600;38.134;2023-06-14T14:41:09;8.75;;;3.58;;
59016;SDS011;44800;55.600;38.134;2023-06-14T14:43:37;7.25;;;3.90;;
59016;SDS011;44800;55.600;38.134;2023-06-14T14:46:06;6.85;;;3.67;;
59016;SDS011;44800;55.600;38.134;2023-06-14T14:48:36;8.57;;;4.53;;
59016;SDS011;44800;55.600;38.134;2023-06-14T14:51:04;8.75;;;4.10;;
59016;SDS011;44800;55.600;38.134;2023-06-14T14:53:33;13.73;;;6.70;;
59016;SDS011;44800;55.600;38.134;2023-06-14T14:56:01;9.23;;;4.35;;